sensor_id;sensor_type;location;lat;lon;timestamp;P1;durP1;ratioP1;P2;durP2;ratioP2
33266;SDS011;19638;49.080;11.896;2023-06-10T00:00:27;7.47;;;6.30;;
33266;SDS011;19638;49.080;11.896;2023-06-10T00:04:32;9.45;;;6.65;;
33266;SDS011;19638;49.080;11.896;2023-06-10T00:08:39;7.55;;;6.45;;
33266;SDS011;19638;49.080;11.896;2023-06-10T00:12:52;10.88;;;6.80;;
33266;SDS011;19638;49.080;11.896;2023-06-10T00:16:58;10.10;;;7.03;;
33266;SDS011;19638;49.080;11.896;2023-06-10T00:21:01;9.65;;;6.45;;
33266;SDS011;19638;49.080;11.896;2023-06-10T00:25:07;7.22;;;6.30;;
33266;SDS011;19638;49.080;11.896;2023-06-10T00:29:12;7.78;;;6.40;;
33266;SDS011;19638;49.080;11.896;2023-06-10T00:33:20;9.63;;;6.90;;
33266;SDS011;19638;49.080;11.896;2023-06-10T00:37:23;11.38;;;7.03;;
33266;SDS011;19638;49.080;11.896;2023-06-10T00:41:28;8.38;;;6.90;;
33266;SDS011;19638;49.080;11.896;2023-06-10T00:45:38;9.13;;;7.28;;
33266;SDS011;19638;49.080;11.896;2023-06-10T00:49:41;13.35;;;6.60;;
33266;SDS011;19638;49.080;11.896;2023-06-10T00:53:50;10.23;;;6.65;;
33266;SDS011;19638;49.080;11.896;2023-06-10T00:57:56;8.85;;;7.00;;
33266;SDS011;19638;49.080;11.896;2023-06-10T01:02:00;10.20;;;7.03;;
33266;SDS011;19638;49.080;11.896;2023-06-10T01:06:06;9.25;;;7.13;;
33266;SDS011;19638;49.080;11.896;2023-06-10T01:10:21;8.35;;;6.38;;
33266;SDS011;19638;49.080;11.896;2023-06-10T01:14:31;9.57;;;6.72;;
33266;SDS011;19638;49.080;11.896;2023-06-10T01:18:36;9.95;;;7.45;;
33266;SDS011;19638;49.080;11.896;2023-06-10T01:22:44;10.13;;;7.60;;
33266;SDS011;19638;49.080;11.896;2023-06-10T01:26:51;10.45;;;7.60;;
33266;SDS011;19638;49.080;11.896;2023-06-10T01:31:05;8.82;;;6.78;;
33266;SDS011;19638;49.080;11.896;2023-06-10T01:35:12;7.55;;;6.75;;
33266;SDS011;19638;49.080;11.896;2023-06-10T01:39:22;10.02;;;7.40;;
33266;SDS011;19638;49.080;11.896;2023-06-10T01:43:27;10.13;;;7.43;;
33266;SDS011;19638;49.080;11.896;2023-06-10T01:47:30;8.77;;;6.63;;
33266;SDS011;19638;49.080;11.896;2023-06-10T01:51:34;8.20;;;7.00;;
33266;SDS011;19638;49.080;11.896;2023-06-10T01:55:38;9.00;;;7.00;;
33266;SDS011;19638;49.080;11.896;2023-06-10T01:59:48;10.95;;;7.57;;
33266;SDS011;19638;49.080;11.896;2023-06-10T02:03:54;11.32;;;7.35;;
33266;SDS011;19638;49.080;11.896;2023-06-10T02:08:02;10.13;;;7.43;;
33266;SDS011;19638;49.080;11.896;2023-06-10T02:12:07;10.68;;;8.43;;
33266;SDS011;19638;49.080;11.896;2023-06-10T02:16:12;11.85;;;8.60;;
33266;SDS011;19638;49.080;11.896;2023-06-10T02:20:18;12.32;;;8.30;;
33266;SDS011;19638;49.080;11.896;2023-06-10T02:24:22;10.45;;;8.57;;
33266;SDS011;19638;49.080;11.896;2023-06-10T02:28:26;11.07;;;8.65;;
33266;SDS011;19638;49.080;11.896;2023-06-10T02:32:29;11.07;;;8.90;;
33266;SDS011;19638;49.080;11.896;2023-06-10T02:36:35;11.57;;;8.65;;
33266;SDS011;19638;49.080;11.896;2023-06-10T02:40:41;12.18;;;9.10;;
33266;SDS011;19638;49.080;11.896;2023-06-10T02:44:46;11.32;;;8.60;;
33266;SDS011;19638;49.080;11.896;2023-06-10T02:48:51;15.75;;;9.38;;
33266;SDS011;19638;49.080;11.896;2023-06-10T02:52:58;11.90;;;8.68;;
33266;SDS011;19638;49.080;11.896;2023-06-10T02:57:04;13.55;;;9.50;;
33266;SDS011;19638;49.080;11.896;2023-06-10T03:05:21;15.18;;;9.55;;
33266;SDS011;19638;49.080;11.896;2023-06-10T03:09:25;13.82;;;9.73;;
33266;SDS011;19638;49.080;11.896;2023-06-10T03:13:30;13.05;;;9.75;;
33266;SDS011;19638;49.080;11.896;2023-06-10T03:17:36;17.55;;;10.15;;
33266;SDS011;19638;49.080;11.896;2023-06-10T03:21:49;16.98;;;10.30;;
33266;SDS011;19638;49.080;11.896;2023-06-10T03:25:57;11.30;;;8.57;;
33266;SDS011;19638;49.080;11.896;2023-06-10T03:30:02;15.57;;;10.00;;
33266;SDS011;19638;49.080;11.896;2023-06-10T03:34:07;10.73;;;8.38;;
33266;SDS011;19638;49.080;11.896;2023-06-10T03:38:12;14.68;;;9.88;;
33266;SDS011;19638;49.080;11.896;2023-06-10T03:42:17;11.50;;;9.30;;
33266;SDS011;19638;49.080;11.896;2023-06-10T03:46:21;13.65;;;9.60;;
33266;SDS011;19638;49.080;11.896;2023-06-10T03:50:25;14.32;;;9.07;;
33266;SDS011;19638;49.080;11.896;2023-06-10T03:54:34;12.13;;;8.88;;
33266;SDS011;19638;49.080;11.896;2023-06-10T03:58:45;12.98;;;8.98;;
33266;SDS011;19638;49.080;11.896;2023-06-10T04:02:48;11.25;;;9.30;;
33266;SDS011;19638;49.080;11.896;2023-06-10T04:06:53;12.77;;;8.88;;
33266;SDS011;19638;49.080;11.896;2023-06-10T04:11:01;11.98;;;8.20;;
33266;SDS011;19638;49.080;11.896;2023-06-10T04:15:04;13.32;;;8.70;;
33266;SDS011;19638;49.080;11.896;2023-06-10T04:19:10;10.98;;;7.90;;
33266;SDS011;19638;49.080;11.896;2023-06-10T04:23:13;9.48;;;8.10;;
33266;SDS011;19638;49.080;11.896;2023-06-10T04:27:21;12.18;;;7.97;;
33266;SDS011;19638;49.080;11.896;2023-06-10T04:31:26;11.70;;;8.35;;
33266;SDS011;19638;49.080;11.896;2023-06-10T04:35:34;10.68;;;8.00;;
33266;SDS011;19638;49.080;11.896;2023-06-10T04:39:49;8.68;;;7.68;;
33266;SDS011;19638;49.080;11.896;2023-06-10T04:43:56;9.30;;;7.45;;
33266;SDS011;19638;49.080;11.896;2023-06-10T04:48:00;12.45;;;7.65;;
33266;SDS011;19638;49.080;11.896;2023-06-10T04:52:06;8.70;;;7.32;;
33266;SDS011;19638;49.080;11.896;2023-06-10T04:56:14;9.73;;;7.95;;
33266;SDS011;19638;49.080;11.896;2023-06-10T05:00:19;11.20;;;7.88;;
33266;SDS011;19638;49.080;11.896;2023-06-10T05:04:22;9.93;;;7.72;;
33266;SDS011;19638;49.080;11.896;2023-06-10T05:08:34;8.77;;;7.13;;
33266;SDS011;19638;49.080;11.896;2023-06-10T05:12:38;10.18;;;7.80;;
33266;SDS011;19638;49.080;11.896;2023-06-10T05:16:42;9.55;;;7.57;;
33266;SDS011;19638;49.080;11.896;2023-06-10T05:20:47;9.88;;;8.13;;
33266;SDS011;19638;49.080;11.896;2023-06-10T05:24:53;8.95;;;7.10;;
33266;SDS011;19638;49.080;11.896;2023-06-10T05:28:57;10.68;;;7.78;;
33266;SDS011;19638;49.080;11.896;2023-06-10T05:33:04;8.20;;;7.35;;
33266;SDS011;19638;49.080;11.896;2023-06-10T05:37:09;11.43;;;7.70;;
33266;SDS011;19638;49.080;11.896;2023-06-10T05:41:12;9.32;;;7.65;;
33266;SDS011;19638;49.080;11.896;2023-06-10T05:45:17;8.48;;;6.93;;
33266;SDS011;19638;49.080;11.896;2023-06-10T05:49:23;11.48;;;7.72;;
33266;SDS011;19638;49.080;11.896;2023-06-10T05:53:26;8.85;;;6.97;;
33266;SDS011;19638;49.080;11.896;2023-06-10T05:57:29;8.20;;;7.40;;
33266;SDS011;19638;49.080;11.896;2023-06-10T06:01:35;9.40;;;7.07;;
33266;SDS011;19638;49.080;11.896;2023-06-10T06:05:42;8.25;;;7.35;;
33266;SDS011;19638;49.080;11.896;2023-06-10T06:09:45;11.95;;;7.40;;
33266;SDS011;19638;49.080;11.896;2023-06-10T06:13:49;9.32;;;6.82;;
33266;SDS011;19638;49.080;11.896;2023-06-10T06:17:55;7.43;;;6.70;;
33266;SDS011;19638;49.080;11.896;2023-06-10T06:22:01;14.52;;;7.18;;
33266;SDS011;19638;49.080;11.896;2023-06-10T06:26:07;7.65;;;6.60;;
33266;SDS011;19638;49.080;11.896;2023-06-10T06:30:11;7.80;;;6.53;;
33266;SDS011;19638;49.080;11.896;2023-06-10T06:34:20;7.85;;;7.03;;
33266;SDS011;19638;49.080;11.896;2023-06-10T06:38:25;8.30;;;6.70;;
33266;SDS011;19638;49.080;11.896;2023-06-10T06:42:28;7.78;;;6.90;;
33266;SDS011;19638;49.080;11.896;2023-06-10T06:46:35;8.32;;;6.70;;
33266;SDS011;19638;49.080;11.896;2023-06-10T06:50:38;8.57;;;6.50;;
33266;SDS011;19638;49.080;11.896;2023-06-10T06:54:45;7.50;;;6.50;;
33266;SDS011;19638;49.080;11.896;2023-06-10T06:58:49;11.23;;;6.47;;
33266;SDS011;19638;49.080;11.896;2023-06-10T07:02:58;8.02;;;6.00;;
33266;SDS011;19638;49.080;11.896;2023-06-10T07:07:02;6.90;;;6.30;;
33266;SDS011;19638;49.080;11.896;2023-06-10T07:11:09;8.23;;;6.60;;
33266;SDS011;19638;49.080;11.896;2023-06-10T07:15:12;10.00;;;6.85;;
33266;SDS011;19638;49.080;11.896;2023-06-10T07:19:18;8.40;;;7.07;;
33266;SDS011;19638;49.080;11.896;2023-06-10T07:23:21;8.80;;;6.57;;
33266;SDS011;19638;49.080;11.896;2023-06-10T07:27:25;11.55;;;6.93;;
33266;SDS011;19638;49.080;11.896;2023-06-10T07:31:31;8.25;;;6.88;;
33266;SDS011;19638;49.080;11.896;2023-06-10T07:35:36;7.22;;;6.50;;
33266;SDS011;19638;49.080;11.896;2023-06-10T07:39:40;8.10;;;7.30;;
33266;SDS011;19638;49.080;11.896;2023-06-10T07:43:46;9.40;;;7.88;;
33266;SDS011;19638;49.080;11.896;2023-06-10T07:47:49;9.85;;;7.75;;
33266;SDS011;19638;49.080;11.896;2023-06-10T07:51:55;9.10;;;6.78;;
33266;SDS011;19638;49.080;11.896;2023-06-10T07:56:00;8.57;;;6.85;;
33266;SDS011;19638;49.080;11.896;2023-06-10T08:00:05;9.18;;;6.70;;
33266;SDS011;19638;49.080;11.896;2023-06-10T08:04:12;8.38;;;6.47;;
33266;SDS011;19638;49.080;11.896;2023-06-10T08:08:27;10.60;;;7.30;;
33266;SDS011;19638;49.080;11.896;2023-06-10T08:12:31;7.78;;;6.97;;
33266;SDS011;19638;49.080;11.896;2023-06-10T08:16:37;8.57;;;7.78;;
33266;SDS011;19638;49.080;11.896;2023-06-10T08:20:45;7.20;;;6.47;;
33266;SDS011;19638;49.080;11.896;2023-06-10T08:24:48;7.65;;;6.40;;
33266;SDS011;19638;49.080;11.896;2023-06-10T08:28:51;7.85;;;6.28;;
33266;SDS011;19638;49.080;11.896;2023-06-10T08:33:01;8.65;;;6.65;;
33266;SDS011;19638;49.080;11.896;2023-06-10T08:37:07;6.63;;;6.03;;
33266;SDS011;19638;49.080;11.896;2023-06-10T08:41:11;10.63;;;6.65;;
33266;SDS011;19638;49.080;11.896;2023-06-10T08:45:19;6.78;;;6.07;;
33266;SDS011;19638;49.080;11.896;2023-06-10T08:49:34;7.18;;;6.38;;
33266;SDS011;19638;49.080;11.896;2023-06-10T08:53:42;6.20;;;5.68;;
33266;SDS011;19638;49.080;11.896;2023-06-10T08:57:52;18.35;;;6.53;;
33266;SDS011;19638;49.080;11.896;2023-06-10T09:01:56;7.05;;;6.35;;
33266;SDS011;19638;49.080;11.896;2023-06-10T09:06:03;6.43;;;5.82;;
33266;SDS011;19638;49.080;11.896;2023-06-10T09:10:08;6.53;;;5.53;;
33266;SDS011;19638;49.080;11.896;2023-06-10T09:14:17;8.57;;;6.05;;
33266;SDS011;19638;49.080;11.896;2023-06-10T09:18:25;6.50;;;5.80;;
33266;SDS011;19638;49.080;11.896;2023-06-10T09:22:32;5.80;;;5.20;;
33266;SDS011;19638;49.080;11.896;2023-06-10T09:26:35;5.85;;;5.20;;
33266;SDS011;19638;49.080;11.896;2023-06-10T09:30:39;5.55;;;5.05;;
33266;SDS011;19638;49.080;11.896;2023-06-10T09:34:43;5.55;;;5.15;;
33266;SDS011;19638;49.080;11.896;2023-06-10T09:38:49;5.53;;;4.85;;
33266;SDS011;19638;49.080;11.896;2023-06-10T09:42:55;9.63;;;5.07;;
33266;SDS011;19638;49.080;11.896;2023-06-10T09:46:59;5.20;;;4.80;;
33266;SDS011;19638;49.080;11.896;2023-06-10T09:51:10;5.07;;;4.68;;
33266;SDS011;19638;49.080;11.896;2023-06-10T09:55:21;5.35;;;4.85;;
33266;SDS011;19638;49.080;11.896;2023-06-10T09:59:30;5.50;;;4.38;;
33266;SDS011;19638;49.080;11.896;2023-06-10T10:03:42;4.38;;;3.97;;
33266;SDS011;19638;49.080;11.896;2023-06-10T10:07:51;5.35;;;4.85;;
33266;SDS011;19638;49.080;11.896;2023-06-10T10:11:57;4.90;;;4.50;;
33266;SDS011;19638;49.080;11.896;2023-06-10T10:16:04;4.55;;;4.25;;
33266;SDS011;19638;49.080;11.896;2023-06-10T10:20:13;5.15;;;4.68;;
33266;SDS011;19638;49.080;11.896;2023-06-10T10:24:20;4.70;;;4.30;;
33266;SDS011;19638;49.080;11.896;2023-06-10T10:28:33;5.45;;;5.00;;
33266;SDS011;19638;49.080;11.896;2023-06-10T10:32:57;5.68;;;5.15;;
33266;SDS011;19638;49.080;11.896;2023-06-10T10:37:08;4.78;;;4.47;;
33266;SDS011;19638;49.080;11.896;2023-06-10T10:41:12;6.07;;;5.40;;
33266;SDS011;19638;49.080;11.896;2023-06-10T10:45:23;5.57;;;5.13;;
33266;SDS011;19638;49.080;11.896;2023-06-10T10:49:28;7.78;;;5.57;;
33266;SDS011;19638;49.080;11.896;2023-06-10T10:53:34;6.13;;;5.50;;
33266;SDS011;19638;49.080;11.896;2023-06-10T10:57:38;5.55;;;5.07;;
33266;SDS011;19638;49.080;11.896;2023-06-10T11:01:43;6.20;;;5.55;;
33266;SDS011;19638;49.080;11.896;2023-06-10T11:05:48;5.60;;;5.10;;
33266;SDS011;19638;49.080;11.896;2023-06-10T11:09:58;6.35;;;5.63;;
33266;SDS011;19638;49.080;11.896;2023-06-10T11:14:06;7.55;;;6.38;;
33266;SDS011;19638;49.080;11.896;2023-06-10T11:18:22;8.10;;;7.18;;
33266;SDS011;19638;49.080;11.896;2023-06-10T11:22:26;7.88;;;7.05;;
33266;SDS011;19638;49.080;11.896;2023-06-10T11:26:30;8.27;;;7.47;;
33266;SDS011;19638;49.080;11.896;2023-06-10T11:30:37;7.72;;;6.90;;
33266;SDS011;19638;49.080;11.896;2023-06-10T11:34:41;7.13;;;6.53;;
33266;SDS011;19638;49.080;11.896;2023-06-10T11:38:46;10.00;;;6.72;;
33266;SDS011;19638;49.080;11.896;2023-06-10T11:42:56;7.00;;;6.35;;
33266;SDS011;19638;49.080;11.896;2023-06-10T11:47:00;7.22;;;6.50;;
33266;SDS011;19638;49.080;11.896;2023-06-10T11:51:08;9.00;;;6.53;;
33266;SDS011;19638;49.080;11.896;2023-06-10T11:55:12;7.68;;;6.90;;
33266;SDS011;19638;49.080;11.896;2023-06-10T11:59:15;6.90;;;6.30;;
33266;SDS011;19638;49.080;11.896;2023-06-10T12:03:21;8.27;;;6.47;;
33266;SDS011;19638;49.080;11.896;2023-06-10T12:07:26;6.43;;;5.82;;
33266;SDS011;19638;49.080;11.896;2023-06-10T12:11:30;9.60;;;6.35;;
33266;SDS011;19638;49.080;11.896;2023-06-10T12:15:39;6.25;;;5.60;;
33266;SDS011;19638;49.080;11.896;2023-06-10T12:19:42;6.70;;;6.00;;
33266;SDS011;19638;49.080;11.896;2023-06-10T12:28:14;6.65;;;5.90;;
33266;SDS011;19638;49.080;11.896;2023-06-10T12:32:19;6.82;;;6.22;;
33266;SDS011;19638;49.080;11.896;2023-06-10T12:36:24;6.53;;;5.85;;
33266;SDS011;19638;49.080;11.896;2023-06-10T12:40:35;6.75;;;6.15;;
33266;SDS011;19638;49.080;11.896;2023-06-10T12:44:41;7.22;;;6.25;;
33266;SDS011;19638;49.080;11.896;2023-06-10T12:48:50;8.25;;;6.93;;
33266;SDS011;19638;49.080;11.896;2023-06-10T12:52:57;6.32;;;5.72;;
33266;SDS011;19638;49.080;11.896;2023-06-10T12:57:01;7.75;;;6.00;;
33266;SDS011;19638;49.080;11.896;2023-06-10T13:01:05;7.35;;;6.65;;
33266;SDS011;19638;49.080;11.896;2023-06-10T13:05:08;6.72;;;6.13;;
33266;SDS011;19638;49.080;11.896;2023-06-10T13:09:15;5.60;;;5.10;;
33266;SDS011;19638;49.080;11.896;2023-06-10T13:13:22;4.85;;;4.50;;
33266;SDS011;19638;49.080;11.896;2023-06-10T13:17:25;5.07;;;4.60;;
33266;SDS011;19638;49.080;11.896;2023-06-10T13:21:29;7.97;;;3.83;;
33266;SDS011;19638;49.080;11.896;2023-06-10T13:25:34;4.70;;;4.32;;
33266;SDS011;19638;49.080;11.896;2023-06-10T13:29:38;4.75;;;4.35;;
33266;SDS011;19638;49.080;11.896;2023-06-10T13:33:41;5.10;;;4.60;;
33266;SDS011;19638;49.080;11.896;2023-06-10T13:37:46;5.00;;;4.60;;
33266;SDS011;19638;49.080;11.896;2023-06-10T13:41:49;6.18;;;4.35;;
33266;SDS011;19638;49.080;11.896;2023-06-10T13:45:55;5.00;;;4.60;;
33266;SDS011;19638;49.080;11.896;2023-06-10T13:50:02;4.32;;;4.00;;
33266;SDS011;19638;49.080;11.896;2023-06-10T13:54:06;4.93;;;4.55;;
33266;SDS011;19638;49.080;11.896;2023-06-10T13:58:12;4.40;;;4.05;;
33266;SDS011;19638;49.080;11.896;2023-06-10T14:02:17;4.80;;;4.50;;
33266;SDS011;19638;49.080;11.896;2023-06-10T14:06:23;5.13;;;4.60;;
33266;SDS011;19638;49.080;11.896;2023-06-10T14:10:28;5.32;;;4.90;;
33266;SDS011;19638;49.080;11.896;2023-06-10T14:14:35;6.28;;;5.50;;
33266;SDS011;19638;49.080;11.896;2023-06-10T14:18:39;6.18;;;4.78;;
33266;SDS011;19638;49.080;11.896;2023-06-10T14:22:43;5.90;;;5.05;;
33266;SDS011;19638;49.080;11.896;2023-06-10T14:26:47;6.90;;;5.47;;
33266;SDS011;19638;49.080;11.896;2023-06-10T14:30:53;6.03;;;4.90;;
33266;SDS011;19638;49.080;11.896;2023-06-10T14:35:00;5.28;;;4.85;;
33266;SDS011;19638;49.080;11.896;2023-06-10T14:39:05;5.90;;;5.45;;
33266;SDS011;19638;49.080;11.896;2023-06-10T14:43:09;5.88;;;4.93;;
33266;SDS011;19638;49.080;11.896;2023-06-10T14:47:13;6.68;;;4.90;;
33266;SDS011;19638;49.080;11.896;2023-06-10T14:51:18;5.45;;;4.95;;
33266;SDS011;19638;49.080;11.896;2023-06-10T14:55:22;6.20;;;5.18;;
33266;SDS011;19638;49.080;11.896;2023-06-10T14:59:28;5.20;;;4.78;;
33266;SDS011;19638;49.080;11.896;2023-06-10T15:03:37;11.00;;;5.32;;
33266;SDS011;19638;49.080;11.896;2023-06-10T15:07:42;9.90;;;6.35;;
33266;SDS011;19638;49.080;11.896;2023-06-10T15:11:49;8.93;;;6.93;;
33266;SDS011;19638;49.080;11.896;2023-06-10T15:15:53;13.82;;;7.90;;
33266;SDS011;19638;49.080;11.896;2023-06-10T15:19:57;11.32;;;7.53;;
33266;SDS011;19638;49.080;11.896;2023-06-10T15:24:02;16.20;;;8.30;;
33266;SDS011;19638;49.080;11.896;2023-06-10T15:28:06;11.68;;;8.75;;
33266;SDS011;19638;49.080;11.896;2023-06-10T15:32:09;11.10;;;9.40;;
33266;SDS011;19638;49.080;11.896;2023-06-10T15:36:19;14.48;;;10.30;;
33266;SDS011;19638;49.080;11.896;2023-06-10T15:40:24;17.75;;;11.23;;
33266;SDS011;19638;49.080;11.896;2023-06-10T15:44:31;18.50;;;11.43;;
33266;SDS011;19638;49.080;11.896;2023-06-10T15:48:37;20.73;;;11.38;;
33266;SDS011;19638;49.080;11.896;2023-06-10T15:52:40;16.02;;;10.77;;
33266;SDS011;19638;49.080;11.896;2023-06-10T15:56:49;13.15;;;9.88;;
33266;SDS011;19638;49.080;11.896;2023-06-10T16:00:55;13.30;;;8.95;;
33266;SDS011;19638;49.080;11.896;2023-06-10T16:05:05;11.18;;;9.45;;
33266;SDS011;19638;49.080;11.896;2023-06-10T16:09:09;9.27;;;8.25;;
33266;SDS011;19638;49.080;11.896;2023-06-10T16:13:13;13.43;;;8.52;;
33266;SDS011;19638;49.080;11.896;2023-06-10T16:17:17;10.27;;;8.73;;
33266;SDS011;19638;49.080;11.896;2023-06-10T16:21:20;7.80;;;7.05;;
33266;SDS011;19638;49.080;11.896;2023-06-10T16:25:24;7.40;;;6.38;;
33266;SDS011;19638;49.080;11.896;2023-06-10T16:29:38;8.25;;;7.43;;
33266;SDS011;19638;49.080;11.896;2023-06-10T16:33:51;9.52;;;8.57;;
33266;SDS011;19638;49.080;11.896;2023-06-10T16:37:56;9.77;;;6.93;;
33266;SDS011;19638;49.080;11.896;2023-06-10T16:42:05;7.15;;;6.45;;
33266;SDS011;19638;49.080;11.896;2023-06-10T16:46:14;10.68;;;9.57;;
33266;SDS011;19638;49.080;11.896;2023-06-10T16:50:21;7.97;;;7.10;;
33266;SDS011;19638;49.080;11.896;2023-06-10T16:54:29;7.25;;;6.43;;
33266;SDS011;19638;49.080;11.896;2023-06-10T16:58:37;7.20;;;6.35;;
33266;SDS011;19638;49.080;11.896;2023-06-10T17:02:47;7.28;;;5.72;;
33266;SDS011;19638;49.080;11.896;2023-06-10T17:06:50;7.03;;;5.13;;
33266;SDS011;19638;49.080;11.896;2023-06-10T17:10:56;9.02;;;5.68;;
33266;SDS011;19638;49.080;11.896;2023-06-10T17:15:01;5.65;;;4.60;;
33266;SDS011;19638;49.080;11.896;2023-06-10T17:19:08;8.10;;;5.40;;
33266;SDS011;19638;49.080;11.896;2023-06-10T17:23:17;8.77;;;5.75;;
33266;SDS011;19638;49.080;11.896;2023-06-10T17:27:22;7.20;;;5.50;;
33266;SDS011;19638;49.080;11.896;2023-06-10T17:31:28;6.07;;;5.45;;
33266;SDS011;19638;49.080;11.896;2023-06-10T17:35:36;6.78;;;5.40;;
33266;SDS011;19638;49.080;11.896;2023-06-10T17:39:39;9.10;;;6.20;;
33266;SDS011;19638;49.080;11.896;2023-06-10T17:43:42;6.68;;;5.70;;
33266;SDS011;19638;49.080;11.896;2023-06-10T17:47:48;8.02;;;5.82;;
33266;SDS011;19638;49.080;11.896;2023-06-10T17:51:53;6.70;;;5.82;;
33266;SDS011;19638;49.080;11.896;2023-06-10T17:56:00;6.75;;;5.68;;
33266;SDS011;19638;49.080;11.896;2023-06-10T18:00:04;7.13;;;5.50;;
33266;SDS011;19638;49.080;11.896;2023-06-10T18:04:08;7.75;;;5.38;;
33266;SDS011;19638;49.080;11.896;2023-06-10T18:08:15;8.75;;;5.13;;
33266;SDS011;19638;49.080;11.896;2023-06-10T18:12:18;7.25;;;5.32;;
33266;SDS011;19638;49.080;11.896;2023-06-10T18:16:23;7.20;;;5.90;;
33266;SDS011;19638;49.080;11.896;2023-06-10T18:20:30;10.10;;;6.50;;
33266;SDS011;19638;49.080;11.896;2023-06-10T18:24:37;6.95;;;6.25;;
33266;SDS011;19638;49.080;11.896;2023-06-10T18:28:44;7.13;;;6.13;;
33266;SDS011;19638;49.080;11.896;2023-06-10T18:32:47;8.18;;;6.28;;
33266;SDS011;19638;49.080;11.896;2023-06-10T18:36:50;6.45;;;4.97;;
33266;SDS011;19638;49.080;11.896;2023-06-10T18:40:55;6.53;;;4.40;;
33266;SDS011;19638;49.080;11.896;2023-06-10T18:45:00;4.05;;;3.72;;
33266;SDS011;19638;49.080;11.896;2023-06-10T18:49:05;6.30;;;4.18;;
33266;SDS011;19638;49.080;11.896;2023-06-10T18:53:08;5.07;;;4.53;;
33266;SDS011;19638;49.080;11.896;2023-06-10T18:57:16;4.88;;;4.30;;
33266;SDS011;19638;49.080;11.896;2023-06-10T19:01:19;6.93;;;4.88;;
33266;SDS011;19638;49.080;11.896;2023-06-10T19:05:25;5.72;;;4.72;;
33266;SDS011;19638;49.080;11.896;2023-06-10T19:09:29;4.55;;;4.15;;
33266;SDS011;19638;49.080;11.896;2023-06-10T19:13:38;14.07;;;4.82;;
33266;SDS011;19638;49.080;11.896;2023-06-10T19:17:41;6.28;;;4.25;;
33266;SDS011;19638;49.080;11.896;2023-06-10T19:21:45;5.10;;;4.57;;
33266;SDS011;19638;49.080;11.896;2023-06-10T19:25:51;6.00;;;5.13;;
33266;SDS011;19638;49.080;11.896;2023-06-10T19:30:00;7.97;;;5.50;;
33266;SDS011;19638;49.080;11.896;2023-06-10T19:34:06;5.80;;;5.20;;
33266;SDS011;19638;49.080;11.896;2023-06-10T19:38:09;9.70;;;5.00;;
33266;SDS011;19638;49.080;11.896;2023-06-10T19:42:14;6.25;;;5.65;;
33266;SDS011;19638;49.080;11.896;2023-06-10T19:46:19;7.25;;;6.47;;
33266;SDS011;19638;49.080;11.896;2023-06-10T19:50:23;10.50;;;6.00;;
33266;SDS011;19638;49.080;11.896;2023-06-10T19:54:33;7.30;;;6.50;;
33266;SDS011;19638;49.080;11.896;2023-06-10T19:58:40;7.53;;;6.40;;
33266;SDS011;19638;49.080;11.896;2023-06-10T20:02:45;8.82;;;6.82;;
33266;SDS011;19638;49.080;11.896;2023-06-10T20:06:48;8.85;;;6.68;;
33266;SDS011;19638;49.080;11.896;2023-06-10T20:10:55;8.93;;;7.90;;
33266;SDS011;19638;49.080;11.896;2023-06-10T20:14:58;9.38;;;6.97;;
33266;SDS011;19638;49.080;11.896;2023-06-10T20:19:07;7.65;;;6.78;;
33266;SDS011;19638;49.080;11.896;2023-06-10T20:23:10;7.72;;;6.20;;
33266;SDS011;19638;49.080;11.896;2023-06-10T20:27:13;8.05;;;6.40;;
33266;SDS011;19638;49.080;11.896;2023-06-10T20:31:17;8.50;;;6.93;;
33266;SDS011;19638;49.080;11.896;2023-06-10T20:35:23;7.47;;;6.78;;
33266;SDS011;19638;49.080;11.896;2023-06-10T20:39:26;8.77;;;6.25;;
33266;SDS011;19638;49.080;11.896;2023-06-10T20:43:29;9.23;;;6.30;;
33266;SDS011;19638;49.080;11.896;2023-06-10T20:47:32;7.07;;;6.35;;
33266;SDS011;19638;49.080;11.896;2023-06-10T20:51:37;6.85;;;6.15;;
33266;SDS011;19638;49.080;11.896;2023-06-10T20:55:41;7.10;;;5.68;;
33266;SDS011;19638;49.080;11.896;2023-06-10T20:59:46;7.18;;;6.18;;
33266;SDS011;19638;49.080;11.896;2023-06-10T21:03:49;7.57;;;6.32;;
33266;SDS011;19638;49.080;11.896;2023-06-10T21:07:56;8.85;;;6.13;;
33266;SDS011;19638;49.080;11.896;2023-06-10T21:12:02;9.98;;;5.65;;
33266;SDS011;19638;49.080;11.896;2023-06-10T21:16:06;8.05;;;6.15;;
33266;SDS011;19638;49.080;11.896;2023-06-10T21:20:10;6.38;;;5.78;;
33266;SDS011;19638;49.080;11.896;2023-06-10T21:24:17;6.45;;;5.85;;
33266;SDS011;19638;49.080;11.896;2023-06-10T21:28:20;6.85;;;5.65;;
33266;SDS011;19638;49.080;11.896;2023-06-10T21:32:23;7.53;;;5.55;;
33266;SDS011;19638;49.080;11.896;2023-06-10T21:36:29;8.85;;;6.07;;
33266;SDS011;19638;49.080;11.896;2023-06-10T21:40:33;8.10;;;6.22;;
33266;SDS011;19638;49.080;11.896;2023-06-10T21:44:36;8.23;;;5.88;;
33266;SDS011;19638;49.080;11.896;2023-06-10T21:48:41;7.68;;;5.55;;
33266;SDS011;19638;49.080;11.896;2023-06-10T21:52:45;5.93;;;5.28;;
33266;SDS011;19638;49.080;11.896;2023-06-10T21:56:52;9.60;;;6.18;;
33266;SDS011;19638;49.080;11.896;2023-06-10T22:00:55;7.75;;;5.22;;
33266;SDS011;19638;49.080;11.896;2023-06-10T22:05:00;6.13;;;5.53;;
33266;SDS011;19638;49.080;11.896;2023-06-10T22:09:03;7.88;;;6.15;;
33266;SDS011;19638;49.080;11.896;2023-06-10T22:13:10;6.10;;;5.50;;
33266;SDS011;19638;49.080;11.896;2023-06-10T22:17:13;8.00;;;5.10;;
33266;SDS011;19638;49.080;11.896;2023-06-10T22:21:21;5.88;;;5.28;;
33266;SDS011;19638;49.080;11.896;2023-06-10T22:25:25;8.82;;;5.20;;
33266;SDS011;19638;49.080;11.896;2023-06-10T22:29:30;6.10;;;5.38;;
33266;SDS011;19638;49.080;11.896;2023-06-10T22:33:40;5.50;;;5.00;;
33266;SDS011;19638;49.080;11.896;2023-06-10T22:37:44;5.75;;;5.10;;
33266;SDS011;19638;49.080;11.896;2023-06-10T22:41:49;5.97;;;5.38;;
33266;SDS011;19638;49.080;11.896;2023-06-10T22:45:56;5.78;;;5.13;;
33266;SDS011;19638;49.080;11.896;2023-06-10T22:50:01;5.50;;;5.00;;
33266;SDS011;19638;49.080;11.896;2023-06-10T22:54:09;8.05;;;5.55;;
33266;SDS011;19638;49.080;11.896;2023-06-10T22:58:13;6.72;;;5.40;;
33266;SDS011;19638;49.080;11.896;2023-06-10T23:02:21;5.93;;;5.40;;
33266;SDS011;19638;49.080;11.896;2023-06-10T23:06:26;6.00;;;5.40;;
33266;SDS011;19638;49.080;11.896;2023-06-10T23:10:29;6.88;;;6.07;;
33266;SDS011;19638;49.080;11.896;2023-06-10T23:14:33;6.85;;;5.82;;
33266;SDS011;19638;49.080;11.896;2023-06-10T23:18:44;6.88;;;5.45;;
33266;SDS011;19638;49.080;11.896;2023-06-10T23:22:48;7.43;;;6.25;;
33266;SDS011;19638;49.080;11.896;2023-06-10T23:26:53;6.75;;;5.75;;
33266;SDS011;19638;49.080;11.896;2023-06-10T23:30:57;10.13;;;5.93;;
33266;SDS011;19638;49.080;11.896;2023-06-10T23:35:04;7.35;;;6.13;;
33266;SDS011;19638;49.080;11.896;2023-06-10T23:39:17;8.05;;;6.00;;
33266;SDS011;19638;49.080;11.896;2023-06-10T23:43:20;9.30;;;6.50;;
33266;SDS011;19638;49.080;11.896;2023-06-10T23:47:27;7.47;;;5.75;;
33266;SDS011;19638;49.080;11.896;2023-06-10T23:51:32;6.63;;;6.03;;
33266;SDS011;19638;49.080;11.896;2023-06-10T23:55:36;7.35;;;6.55;;
33266;SDS011;19638;49.080;11.896;2023-06-10T23:59:39;9.23;;;6.40;;
